sensor_id;sensor_type;location;lat;lon;timestamp;temperature;humidity
2757;DHT22;1386;50.862;6.494;2023-05-10T00:00:40;13.30;99.90
2757;DHT22;1386;50.862;6.494;2023-05-10T00:03:07;14.10;99.90
2757;DHT22;1386;50.862;6.494;2023-05-10T00:05:34;14.00;99.90
2757;DHT22;1386;50.862;6.494;2023-05-10T00:08:00;14.20;99.90
2757;DHT22;1386;50.862;6.494;2023-05-10T00:10:29;14.10;99.90
2757;DHT22;1386;50.862;6.494;2023-05-10T00:12:55;14.10;99.90
2757;DHT22;1386;50.862;6.494;2023-05-10T00:15:22;14.20;99.90
2757;DHT22;1386;50.862;6.494;2023-05-10T00:17:49;14.10;99.90
2757;DHT22;1386;50.862;6.494;2023-05-10T00:20:16;14.10;99.90
2757;DHT22;1386;50.862;6.494;2023-05-10T00:22:43;14.20;99.90
2757;DHT22;1386;50.862;6.494;2023-05-10T00:25:10;13.90;99.90
2757;DHT22;1386;50.862;6.494;2023-05-10T00:27:38;14.00;99.90
2757;DHT22;1386;50.862;6.494;2023-05-10T00:30:06;14.00;99.90
2757;DHT22;1386;50.862;6.494;2023-05-10T00:32:33;14.00;99.90
2757;DHT22;1386;50.862;6.494;2023-05-10T00:35:00;14.00;99.90
2757;DHT22;1386;50.862;6.494;2023-05-10T00:37:27;14.00;99.90
2757;DHT22;1386;50.862;6.494;2023-05-10T00:39:54;13.90;99.90
2757;DHT22;1386;50.862;6.494;2023-05-10T00:44:50;13.90;99.90
2757;DHT22;1386;50.862;6.494;2023-05-10T00:47:17;13.90;99.90
2757;DHT22;1386;50.862;6.494;2023-05-10T00:49:44;13.90;99.90
2757;DHT22;1386;50.862;6.494;2023-05-10T00:52:12;14.20;99.90
2757;DHT22;1386;50.862;6.494;2023-05-10T00:54:39;13.90;99.90
2757;DHT22;1386;50.862;6.494;2023-05-10T00:57:06;13.90;99.90
2757;DHT22;1386;50.862;6.494;2023-05-10T00:59:33;13.90;99.90
2757;DHT22;1386;50.862;6.494;2023-05-10T07:14:44;13.80;99.90
2757;DHT22;1386;50.862;6.494;2023-05-10T07:21:02;14.10;99.90
2757;DHT22;1386;50.862;6.494;2023-05-10T07:23:59;13.80;99.90
2757;DHT22;1386;50.862;6.494;2023-05-10T07:28:53;13.80;99.90
2757;DHT22;1386;50.862;6.494;2023-05-10T07:31:22;13.90;99.90
2757;DHT22;1386;50.862;6.494;2023-05-10T07:33:49;13.80;99.90
2757;DHT22;1386;50.862;6.494;2023-05-10T07:36:16;13.80;99.90
2757;DHT22;1386;50.862;6.494;2023-05-10T07:38:46;13.80;99.90
2757;DHT22;1386;50.862;6.494;2023-05-10T07:41:13;13.80;99.90
2757;DHT22;1386;50.862;6.494;2023-05-10T07:43:43;13.80;99.90
2757;DHT22;1386;50.862;6.494;2023-05-10T07:48:38;13.80;99.90
2757;DHT22;1386;50.862;6.494;2023-05-10T07:51:05;13.80;99.90
2757;DHT22;1386;50.862;6.494;2023-05-10T07:53:34;13.80;99.90
2757;DHT22;1386;50.862;6.494;2023-05-10T07:56:20;13.90;99.90
2757;DHT22;1386;50.862;6.494;2023-05-10T07:58:47;13.80;99.90
2757;DHT22;1386;50.862;6.494;2023-05-10T08:01:14;13.80;99.90
2757;DHT22;1386;50.862;6.494;2023-05-10T08:03:42;13.80;99.90
2757;DHT22;1386;50.862;6.494;2023-05-10T08:06:09;13.90;99.90
2757;DHT22;1386;50.862;6.494;2023-05-10T08:08:36;13.90;99.90
2757;DHT22;1386;50.862;6.494;2023-05-10T08:11:03;13.90;99.90
2757;DHT22;1386;50.862;6.494;2023-05-10T08:13:30;13.90;99.90
2757;DHT22;1386;50.862;6.494;2023-05-10T08:15:58;13.90;99.90
2757;DHT22;1386;50.862;6.494;2023-05-10T08:18:24;14.00;99.90
2757;DHT22;1386;50.862;6.494;2023-05-10T08:20:52;14.10;99.90
2757;DHT22;1386;50.862;6.494;2023-05-10T08:23:19;14.10;99.90
2757;DHT22;1386;50.862;6.494;2023-05-10T08:25:46;13.20;99.90
2757;DHT22;1386;50.862;6.494;2023-05-10T08:28:13;14.20;99.90
2757;DHT22;1386;50.862;6.494;2023-05-10T08:30:40;14.30;99.90
2757;DHT22;1386;50.862;6.494;2023-05-10T08:35:34;14.50;99.90
2757;DHT22;1386;50.862;6.494;2023-05-10T08:38:02;14.50;99.90
2757;DHT22;1386;50.862;6.494;2023-05-10T08:40:29;14.50;99.90
2757;DHT22;1386;50.862;6.494;2023-05-10T08:42:59;14.60;99.90
2757;DHT22;1386;50.862;6.494;2023-05-10T08:45:27;14.60;99.90
2757;DHT22;1386;50.862;6.494;2023-05-10T08:48:00;14.50;99.90
2757;DHT22;1386;50.862;6.494;2023-05-10T08:50:33;14.60;99.90
2757;DHT22;1386;50.862;6.494;2023-05-10T08:53:06;14.80;99.90
2757;DHT22;1386;50.862;6.494;2023-05-10T08:55:36;14.60;99.90
2757;DHT22;1386;50.862;6.494;2023-05-10T09:00:36;14.70;99.90
2757;DHT22;1386;50.862;6.494;2023-05-10T09:03:11;14.70;99.90
2757;DHT22;1386;50.862;6.494;2023-05-10T09:05:50;14.70;99.90
2757;DHT22;1386;50.862;6.494;2023-05-10T09:08:19;14.80;99.90
2757;DHT22;1386;50.862;6.494;2023-05-10T09:10:48;15.00;99.90
2757;DHT22;1386;50.862;6.494;2023-05-10T09:13:55;14.50;99.90
2757;DHT22;1386;50.862;6.494;2023-05-10T09:16:28;14.80;99.90
2757;DHT22;1386;50.862;6.494;2023-05-10T09:19:12;14.80;99.90
2757;DHT22;1386;50.862;6.494;2023-05-10T09:25:09;14.50;99.90
2757;DHT22;1386;50.862;6.494;2023-05-10T09:27:37;14.70;99.90
2757;DHT22;1386;50.862;6.494;2023-05-10T09:30:17;14.70;99.90
2757;DHT22;1386;50.862;6.494;2023-05-10T09:32:45;14.50;99.90
2757;DHT22;1386;50.862;6.494;2023-05-10T09:35:14;14.50;99.90
2757;DHT22;1386;50.862;6.494;2023-05-10T09:37:44;14.60;99.90
2757;DHT22;1386;50.862;6.494;2023-05-10T09:40:14;14.60;99.90
2757;DHT22;1386;50.862;6.494;2023-05-10T09:42:43;14.80;99.90
2757;DHT22;1386;50.862;6.494;2023-05-10T09:45:17;14.80;99.90
2757;DHT22;1386;50.862;6.494;2023-05-10T09:47:45;14.80;99.90
2757;DHT22;1386;50.862;6.494;2023-05-10T09:50:12;14.90;99.90
2757;DHT22;1386;50.862;6.494;2023-05-10T09:52:47;14.90;99.90
2757;DHT22;1386;50.862;6.494;2023-05-10T09:55:16;14.90;99.90
2757;DHT22;1386;50.862;6.494;2023-05-10T09:57:47;15.00;99.90
2757;DHT22;1386;50.862;6.494;2023-05-10T10:00:18;15.10;99.90
2757;DHT22;1386;50.862;6.494;2023-05-10T10:02:47;15.00;99.90
2757;DHT22;1386;50.862;6.494;2023-05-10T10:05:14;15.00;99.90
2757;DHT22;1386;50.862;6.494;2023-05-10T10:07:41;15.00;99.90
2757;DHT22;1386;50.862;6.494;2023-05-10T10:10:09;15.20;99.90
2757;DHT22;1386;50.862;6.494;2023-05-10T10:12:41;15.00;99.90
2757;DHT22;1386;50.862;6.494;2023-05-10T10:15:17;15.10;99.90
2757;DHT22;1386;50.862;6.494;2023-05-10T10:17:44;14.90;99.90
2757;DHT22;1386;50.862;6.494;2023-05-10T10:20:16;14.90;99.90
2757;DHT22;1386;50.862;6.494;2023-05-10T10:22:43;14.80;99.90
2757;DHT22;1386;50.862;6.494;2023-05-10T10:25:12;14.90;99.90
2757;DHT22;1386;50.862;6.494;2023-05-10T10:27:47;14.90;99.90
2757;DHT22;1386;50.862;6.494;2023-05-10T10:30:22;14.90;99.90
2757;DHT22;1386;50.862;6.494;2023-05-10T10:33:13;14.90;99.90
2757;DHT22;1386;50.862;6.494;2023-05-10T10:35:45;15.00;99.90
2757;DHT22;1386;50.862;6.494;2023-05-10T10:38:13;15.00;99.90
2757;DHT22;1386;50.862;6.494;2023-05-10T10:40:40;15.00;99.90
2757;DHT22;1386;50.862;6.494;2023-05-10T10:43:25;15.00;99.90
2757;DHT22;1386;50.862;6.494;2023-05-10T10:46:12;15.00;99.90
2757;DHT22;1386;50.862;6.494;2023-05-10T10:48:40;15.00;99.90
2757;DHT22;1386;50.862;6.494;2023-05-10T10:51:06;14.90;99.90
2757;DHT22;1386;50.862;6.494;2023-05-10T10:53:33;14.90;99.90
2757;DHT22;1386;50.862;6.494;2023-05-10T10:56:07;15.00;99.90
2757;DHT22;1386;50.862;6.494;2023-05-10T10:58:37;15.00;99.90
2757;DHT22;1386;50.862;6.494;2023-05-10T11:01:11;15.20;99.90
2757;DHT22;1386;50.862;6.494;2023-05-10T11:03:38;15.40;99.90
2757;DHT22;1386;50.862;6.494;2023-05-10T11:06:06;16.10;99.90
2757;DHT22;1386;50.862;6.494;2023-05-10T11:08:42;15.80;99.90
2757;DHT22;1386;50.862;6.494;2023-05-10T11:11:14;16.00;99.90
2757;DHT22;1386;50.862;6.494;2023-05-10T11:13:44;16.60;99.90
2757;DHT22;1386;50.862;6.494;2023-05-10T11:16:13;16.60;99.90
2757;DHT22;1386;50.862;6.494;2023-05-10T11:18:41;16.60;99.90
2757;DHT22;1386;50.862;6.494;2023-05-10T11:21:18;16.70;99.90
2757;DHT22;1386;50.862;6.494;2023-05-10T11:23:49;16.70;99.90
2757;DHT22;1386;50.862;6.494;2023-05-10T11:26:17;16.70;99.90
2757;DHT22;1386;50.862;6.494;2023-05-10T11:28:51;16.80;99.90
2757;DHT22;1386;50.862;6.494;2023-05-10T11:31:21;16.80;99.90
2757;DHT22;1386;50.862;6.494;2023-05-10T11:33:50;16.90;99.90
2757;DHT22;1386;50.862;6.494;2023-05-10T11:36:20;16.70;99.90
2757;DHT22;1386;50.862;6.494;2023-05-10T11:38:48;16.60;99.90
2757;DHT22;1386;50.862;6.494;2023-05-10T11:41:17;16.50;99.90
2757;DHT22;1386;50.862;6.494;2023-05-10T11:43:46;16.40;99.90
2757;DHT22;1386;50.862;6.494;2023-05-10T11:46:17;16.40;99.90
2757;DHT22;1386;50.862;6.494;2023-05-10T11:48:46;16.40;99.90
2757;DHT22;1386;50.862;6.494;2023-05-10T11:51:13;16.40;99.90
2757;DHT22;1386;50.862;6.494;2023-05-10T11:53:40;16.40;99.90
2757;DHT22;1386;50.862;6.494;2023-05-10T11:56:08;16.40;99.90
2757;DHT22;1386;50.862;6.494;2023-05-10T11:58:42;16.60;99.90
2757;DHT22;1386;50.862;6.494;2023-05-10T12:01:12;16.50;99.90
2757;DHT22;1386;50.862;6.494;2023-05-10T12:03:41;16.50;99.90
2757;DHT22;1386;50.862;6.494;2023-05-10T12:11:07;16.50;99.90
2757;DHT22;1386;50.862;6.494;2023-05-10T12:13:38;16.50;99.90
2757;DHT22;1386;50.862;6.494;2023-05-10T12:16:15;16.50;99.90
2757;DHT22;1386;50.862;6.494;2023-05-10T12:18:44;16.40;99.90
2757;DHT22;1386;50.862;6.494;2023-05-10T12:23:39;16.50;99.90
2757;DHT22;1386;50.862;6.494;2023-05-10T12:49:35;16.60;99.90
2757;DHT22;1386;50.862;6.494;2023-05-10T12:52:08;16.60;99.90
2757;DHT22;1386;50.862;6.494;2023-05-10T12:59:29;16.40;99.90
2757;DHT22;1386;50.862;6.494;2023-05-10T13:02:06;16.30;99.90
2757;DHT22;1386;50.862;6.494;2023-05-10T14:13:11;16.00;99.90
2757;DHT22;1386;50.862;6.494;2023-05-10T14:15:38;17.60;99.90
2757;DHT22;1386;50.862;6.494;2023-05-10T14:18:05;17.50;99.90
2757;DHT22;1386;50.862;6.494;2023-05-10T14:20:32;17.50;99.90
2757;DHT22;1386;50.862;6.494;2023-05-10T14:22:59;17.40;99.90
2757;DHT22;1386;50.862;6.494;2023-05-10T14:25:53;17.30;99.90
2757;DHT22;1386;50.862;6.494;2023-05-10T14:28:25;18.40;99.90
2757;DHT22;1386;50.862;6.494;2023-05-10T14:33:34;17.30;99.90
2757;DHT22;1386;50.862;6.494;2023-05-10T14:36:21;17.50;99.90
2757;DHT22;1386;50.862;6.494;2023-05-10T14:38:52;17.80;99.90
2757;DHT22;1386;50.862;6.494;2023-05-10T14:41:26;16.50;99.90
2757;DHT22;1386;50.862;6.494;2023-05-10T14:43:55;17.10;99.90
2757;DHT22;1386;50.862;6.494;2023-05-10T14:51:26;16.80;99.90
2757;DHT22;1386;50.862;6.494;2023-05-10T14:58:50;16.80;99.90
2757;DHT22;1386;50.862;6.494;2023-05-10T15:01:18;16.70;99.90
2757;DHT22;1386;50.862;6.494;2023-05-10T15:06:31;16.70;99.90
2757;DHT22;1386;50.862;6.494;2023-05-10T15:11:46;16.90;99.90
2757;DHT22;1386;50.862;6.494;2023-05-10T15:16:43;16.60;99.90
2757;DHT22;1386;50.862;6.494;2023-05-10T15:21:37;16.60;99.90
2757;DHT22;1386;50.862;6.494;2023-05-10T15:24:08;16.80;99.90
2757;DHT22;1386;50.862;6.494;2023-05-10T15:26:35;16.70;99.90
2757;DHT22;1386;50.862;6.494;2023-05-10T15:29:01;16.80;99.90
2757;DHT22;1386;50.862;6.494;2023-05-10T15:31:45;16.80;99.90
2757;DHT22;1386;50.862;6.494;2023-05-10T15:36:44;16.80;99.90
2757;DHT22;1386;50.862;6.494;2023-05-10T15:49:05;16.80;99.90
2757;DHT22;1386;50.862;6.494;2023-05-10T16:06:17;16.60;99.90
2757;DHT22;1386;50.862;6.494;2023-05-10T16:11:11;16.60;99.90
2757;DHT22;1386;50.862;6.494;2023-05-10T16:13:46;16.60;99.90
2757;DHT22;1386;50.862;6.494;2023-05-10T16:23:37;16.60;99.90
2757;DHT22;1386;50.862;6.494;2023-05-10T16:28:35;16.60;99.90
2757;DHT22;1386;50.862;6.494;2023-05-10T16:38:30;16.40;99.90
2757;DHT22;1386;50.862;6.494;2023-05-10T16:41:00;16.40;99.90
2757;DHT22;1386;50.862;6.494;2023-05-10T16:58:12;16.30;99.90
2757;DHT22;1386;50.862;6.494;2023-05-10T17:08:05;16.20;99.90
2757;DHT22;1386;50.862;6.494;2023-05-10T17:15:34;16.50;99.90
2757;DHT22;1386;50.862;6.494;2023-05-10T17:27:54;16.80;99.90
2757;DHT22;1386;50.862;6.494;2023-05-10T17:32:52;16.80;99.90
2757;DHT22;1386;50.862;6.494;2023-05-10T17:40:22;16.80;99.90
2757;DHT22;1386;50.862;6.494;2023-05-10T17:45:16;16.60;99.90
2757;DHT22;1386;50.862;6.494;2023-05-10T17:47:43;16.50;99.90
2757;DHT22;1386;50.862;6.494;2023-05-10T17:50:14;16.50;99.90
2757;DHT22;1386;50.862;6.494;2023-05-10T17:55:09;16.60;99.90
2757;DHT22;1386;50.862;6.494;2023-05-10T17:57:37;16.60;99.90
2757;DHT22;1386;50.862;6.494;2023-05-10T18:00:05;16.50;99.90
2757;DHT22;1386;50.862;6.494;2023-05-10T18:02:34;16.40;99.90
